Live aus Altenrhein
LIVE
LSZR 232320Z AUTO VRB02KT 9999 NSC 01/00 Q1028
Zeitraffer heute
2018-01-24 00:14:53
LSZR 232250Z AUTO 27005KT 220V290 CAVOK 02/02 Q1028
Zeitraffer gestern
2018-01-23 00:14:58
LSZR 222250Z AUTO VRB03KT 9999 -RA BKN046 09/06 Q1019
Zeitraffer vor 3 Tagen
2018-01-21 00:15:00
LSZR 202250Z AUTO 25013KT 210V290 9000 -RA FEW031 BKN036 07/05 Q0999